createdAt,value
2023-01-15T00:02:18.314Z,4.09
2023-01-15T00:04:46.701Z,4.06
2023-01-15T00:07:14.612Z,4.04
2023-01-15T00:09:42.747Z,4.03
2023-01-15T00:12:10.756Z,4.05
2023-01-15T00:14:38.779Z,4.12
2023-01-15T00:17:07.158Z,4.20
2023-01-15T00:19:35.338Z,4.17
2023-01-15T00:22:03.436Z,4.20
2023-01-15T00:24:50.320Z,4.22
2023-01-15T00:27:37.129Z,4.20
2023-01-15T00:30:07.268Z,4.19
2023-01-15T00:32:35.316Z,4.19
2023-01-15T00:35:03.353Z,4.21
2023-01-15T00:37:31.464Z,4.19
2023-01-15T00:39:59.531Z,4.15
2023-01-15T00:42:28.402Z,4.13
2023-01-15T00:44:57.633Z,4.12
2023-01-15T00:47:26.557Z,4.09
2023-01-15T00:49:54.785Z,4.05
2023-01-15T00:52:22.843Z,4.04
2023-01-15T00:54:50.902Z,4.01
2023-01-15T00:57:18.828Z,4.00
2023-01-15T00:59:47.892Z,3.97
2023-01-15T01:02:16.200Z,3.91
2023-01-15T01:04:44.530Z,3.86
2023-01-15T01:07:13.139Z,3.83
2023-01-15T01:09:42.452Z,3.80
2023-01-15T01:12:11.206Z,3.78
2023-01-15T01:14:39.169Z,3.79
2023-01-15T01:17:07.095Z,3.82
2023-01-15T01:19:36.957Z,3.86
2023-01-15T01:22:04.850Z,3.89
2023-01-15T01:24:33.001Z,3.88
2023-01-15T01:27:01.221Z,3.91
2023-01-15T01:29:29.606Z,3.93
2023-01-15T01:31:57.918Z,3.98
2023-01-15T01:34:26.092Z,4.05
2023-01-15T01:36:54.167Z,4.09
2023-01-15T01:39:22.538Z,4.04
2023-01-15T01:41:50.807Z,3.98
2023-01-15T01:44:37.344Z,3.99
2023-01-15T01:47:11.906Z,4.03
2023-01-15T01:49:42.076Z,4.10
2023-01-15T01:52:21.401Z,4.16
2023-01-15T01:54:50.286Z,4.23
2023-01-15T01:57:21.046Z,4.29
2023-01-15T01:59:49.925Z,4.32
2023-01-15T02:02:22.865Z,4.36
2023-01-15T02:04:52.183Z,4.33
2023-01-15T02:07:20.369Z,4.32
2023-01-15T02:09:48.434Z,4.32
2023-01-15T02:12:31.670Z,4.30
2023-01-15T02:15:11.012Z,4.21
2023-01-15T02:17:56.372Z,4.08
2023-01-15T02:20:29.164Z,4.04
2023-01-15T02:23:48.266Z,4.01
2023-01-15T02:26:50.893Z,3.97
2023-01-15T02:29:27.986Z,3.93
2023-01-15T02:31:57.519Z,3.93
2023-01-15T02:34:29.902Z,3.92
2023-01-15T02:37:06.317Z,3.88
2023-01-15T02:39:39.308Z,3.86
2023-01-15T02:42:11.212Z,3.85
2023-01-15T02:44:50.207Z,3.83
2023-01-15T02:47:25.234Z,3.81
2023-01-15T02:49:56.962Z,3.78
2023-01-15T02:52:34.455Z,3.75
2023-01-15T02:55:11.478Z,3.71
2023-01-15T02:57:46.901Z,3.68
2023-01-15T03:00:19.596Z,3.66
2023-01-15T03:03:07.107Z,3.62
2023-01-15T03:05:52.275Z,3.59
2023-01-15T03:08:20.446Z,3.58
2023-01-15T03:10:56.413Z,3.59
2023-01-15T03:13:48.969Z,3.62
2023-01-15T03:16:40.818Z,3.64
2023-01-15T03:19:22.882Z,3.68
2023-01-15T03:21:55.123Z,3.72
2023-01-15T03:24:36.435Z,3.77
2023-01-15T03:27:05.074Z,3.80
2023-01-15T03:29:38.325Z,3.85
2023-01-15T03:32:07.598Z,3.84
2023-01-15T03:34:50.934Z,3.83
2023-01-15T03:37:23.348Z,3.81
2023-01-15T03:39:52.862Z,3.80
2023-01-15T03:43:14.424Z,3.78
2023-01-15T03:45:46.815Z,3.75
2023-01-15T03:48:21.830Z,3.74
2023-01-15T03:50:56.467Z,3.72
2023-01-15T03:53:49.800Z,3.70
2023-01-15T03:56:35.119Z,3.67
2023-01-15T03:59:22.216Z,3.62
2023-01-15T04:01:58.761Z,3.58
2023-01-15T04:04:28.651Z,3.56
2023-01-15T04:06:58.364Z,3.54
2023-01-15T04:09:26.681Z,3.53
2023-01-15T04:12:01.562Z,3.53
2023-01-15T04:14:34.395Z,3.54
2023-01-15T04:17:08.720Z,3.54
2023-01-15T04:19:37.096Z,3.52
2023-01-15T04:22:07.725Z,3.52
2023-01-15T04:24:35.795Z,3.50
2023-01-15T04:27:04.165Z,3.49
2023-01-15T04:29:32.429Z,3.47
2023-01-15T04:32:00.753Z,3.44
2023-01-15T04:34:29.634Z,3.41
2023-01-15T04:36:58.199Z,3.37
2023-01-15T04:39:26.257Z,3.31
2023-01-15T04:42:13.168Z,3.24
2023-01-15T04:44:41.548Z,3.18
2023-01-15T04:47:09.478Z,3.12
2023-01-15T04:49:37.794Z,3.07
2023-01-15T04:52:06.063Z,3.02
2023-01-15T04:54:34.348Z,2.99
2023-01-15T04:57:02.832Z,2.96
2023-01-15T04:59:30.893Z,2.92
2023-01-15T05:02:05.017Z,2.87
2023-01-15T05:04:35.304Z,2.81
2023-01-15T05:07:05.177Z,2.79
2023-01-15T05:09:33.930Z,2.79
2023-01-15T05:12:02.008Z,2.76
2023-01-15T05:14:30.089Z,2.67
2023-01-15T05:16:58.255Z,2.56
2023-01-15T05:19:26.421Z,2.54
2023-01-15T05:21:54.597Z,2.47
2023-01-15T05:24:22.916Z,2.42
2023-01-15T05:26:51.151Z,2.34
2023-01-15T05:29:19.304Z,2.26
2023-01-15T05:31:47.830Z,2.14
2023-01-15T05:34:16.076Z,2.04
2023-01-15T05:36:44.311Z,1.95
2023-01-15T05:39:12.314Z,1.82
2023-01-15T05:41:49.383Z,1.71
2023-01-15T05:44:17.777Z,1.58
2023-01-15T05:46:47.166Z,1.46
2023-01-15T05:49:20.888Z,1.33
2023-01-15T05:51:49.772Z,1.17
2023-01-15T05:54:23.773Z,1.06
2023-01-15T05:56:53.278Z,0.98
2023-01-15T05:59:23.898Z,0.94
2023-01-15T06:01:52.940Z,0.87
2023-01-15T06:04:22.145Z,0.80
2023-01-15T06:06:52.223Z,0.78
2023-01-15T06:09:20.702Z,0.73
2023-01-15T06:11:49.097Z,0.71
2023-01-15T06:14:17.986Z,0.72
2023-01-15T06:16:46.556Z,0.72
2023-01-15T06:19:14.927Z,0.71
2023-01-15T06:21:43.710Z,0.72
2023-01-15T06:24:11.890Z,0.76
2023-01-15T06:26:39.958Z,0.80
2023-01-15T06:29:08.432Z,0.84
2023-01-15T06:31:36.811Z,0.91
2023-01-15T06:34:05.221Z,1.00
2023-01-15T06:36:33.183Z,1.04
2023-01-15T06:39:03.112Z,1.12
2023-01-15T06:41:51.150Z,1.18
2023-01-15T06:44:37.898Z,1.24
2023-01-15T06:47:25.128Z,1.36
2023-01-15T06:49:56.157Z,1.47
2023-01-15T06:52:26.671Z,1.50
2023-01-15T06:54:56.045Z,1.60
2023-01-15T06:57:24.493Z,1.71
2023-01-15T06:59:52.537Z,1.78
2023-01-15T07:02:22.066Z,1.87
2023-01-15T07:04:52.164Z,1.99
2023-01-15T07:07:21.688Z,2.15
2023-01-15T07:09:50.504Z,2.28
2023-01-15T07:12:19.176Z,2.39
2023-01-15T07:14:47.733Z,2.42
2023-01-15T07:17:15.923Z,2.48
2023-01-15T07:19:46.878Z,2.56
2023-01-15T07:22:15.373Z,2.60
2023-01-15T07:24:43.551Z,2.59
2023-01-15T07:27:11.697Z,2.63
2023-01-15T07:29:39.819Z,2.60
2023-01-15T07:32:07.880Z,2.58
2023-01-15T07:34:36.308Z,2.61
2023-01-15T07:37:04.388Z,2.66
2023-01-15T07:39:33.345Z,2.70
2023-01-15T07:42:20.020Z,2.69
2023-01-15T07:45:07.289Z,2.72
2023-01-15T07:47:54.200Z,2.79
2023-01-15T07:50:25.174Z,2.90
2023-01-15T07:52:53.879Z,3.01
2023-01-15T07:55:23.954Z,3.10
2023-01-15T07:57:54.369Z,3.22
2023-01-15T08:00:25.547Z,3.33
2023-01-15T08:02:53.718Z,3.50
2023-01-15T08:05:21.976Z,3.60
2023-01-15T08:07:50.719Z,3.73
2023-01-15T08:10:19.958Z,3.85
2023-01-15T08:13:09.115Z,4.05
2023-01-15T08:15:44.083Z,4.18
2023-01-15T08:18:12.425Z,4.20
2023-01-15T08:20:40.668Z,4.23
2023-01-15T08:23:10.921Z,4.28
2023-01-15T08:25:39.215Z,4.39
2023-01-15T08:28:07.779Z,4.54
2023-01-15T08:30:36.932Z,4.73
2023-01-15T08:33:05.344Z,4.83
2023-01-15T08:35:34.572Z,5.09
2023-01-15T08:38:07.586Z,5.59
2023-01-15T08:40:56.813Z,5.90
2023-01-15T08:43:27.918Z,6.36
2023-01-15T08:46:00.932Z,6.85
2023-01-15T08:48:31.522Z,6.92
2023-01-15T08:51:04.293Z,6.89
2023-01-15T08:53:32.825Z,6.90
2023-01-15T08:56:00.956Z,6.81
2023-01-15T08:58:31.152Z,6.67
2023-01-15T09:01:07.241Z,6.58
2023-01-15T09:03:36.819Z,6.37
2023-01-15T09:06:06.177Z,6.24
2023-01-15T09:08:34.910Z,6.28
2023-01-15T09:11:06.102Z,6.57
2023-01-15T09:13:34.389Z,7.02
2023-01-15T09:16:05.861Z,6.95
2023-01-15T09:18:35.861Z,6.85
2023-01-15T09:21:04.219Z,6.68
2023-01-15T09:23:33.798Z,6.58
2023-01-15T09:26:06.205Z,6.45
2023-01-15T09:28:35.464Z,6.38
2023-01-15T09:31:03.839Z,6.41
2023-01-15T09:33:32.069Z,6.27
2023-01-15T09:36:01.328Z,6.05
2023-01-15T09:38:29.601Z,6.00
2023-01-15T09:41:03.022Z,6.01
2023-01-15T09:43:51.099Z,6.04
2023-01-15T09:46:33.965Z,6.33
2023-01-15T09:49:14.141Z,6.83
2023-01-15T09:51:48.975Z,7.30
2023-01-15T09:54:44.892Z,8.01
2023-01-15T09:57:15.385Z,8.61
2023-01-15T09:59:49.737Z,8.76
2023-01-15T10:02:27.860Z,8.78
2023-01-15T10:05:19.680Z,8.60
2023-01-15T10:08:04.846Z,8.24
2023-01-15T10:10:42.108Z,7.81
2023-01-15T10:13:23.102Z,7.43
2023-01-15T10:15:51.654Z,6.93
2023-01-15T10:18:23.304Z,6.62
2023-01-15T10:21:08.283Z,6.48
2023-01-15T10:23:54.904Z,6.42
2023-01-15T10:26:55.740Z,6.40
2023-01-15T10:29:34.266Z,6.48
2023-01-15T10:32:24.655Z,6.63
2023-01-15T10:35:03.844Z,6.57
2023-01-15T10:37:35.127Z,6.61
2023-01-15T10:40:44.777Z,6.65
2023-01-15T10:43:20.943Z,6.74
2023-01-15T10:45:56.957Z,7.08
2023-01-15T10:48:40.127Z,7.34
2023-01-15T10:51:49.967Z,7.35
2023-01-15T10:54:32.075Z,7.14
2023-01-15T10:57:56.478Z,7.03
2023-01-15T11:00:30.305Z,6.97
2023-01-15T11:03:15.054Z,6.86
2023-01-15T11:05:47.912Z,6.77
2023-01-15T11:11:59.737Z,6.77
2023-01-15T11:15:03.655Z,6.73
2023-01-15T11:17:55.872Z,6.60
2023-01-15T11:20:36.987Z,6.47
2023-01-15T11:23:10.964Z,6.36
2023-01-15T11:25:58.325Z,6.30
2023-01-15T11:28:36.590Z,6.19
2023-01-15T11:31:04.963Z,6.07
2023-01-15T11:33:33.859Z,6.00
2023-01-15T11:36:05.830Z,5.94
2023-01-15T11:38:49.152Z,5.87
2023-01-15T11:41:46.502Z,5.86
2023-01-15T11:44:35.774Z,5.85
2023-01-15T11:47:36.612Z,5.82
2023-01-15T11:50:35.926Z,5.73
2023-01-15T11:53:04.287Z,5.63
2023-01-15T11:55:32.967Z,5.68
2023-01-15T11:58:01.764Z,5.81
2023-01-15T12:00:35.372Z,5.94
2023-01-15T12:03:12.040Z,6.06
2023-01-15T12:05:47.833Z,6.16
2023-01-15T12:08:48.940Z,6.31
2023-01-15T12:11:52.939Z,6.50
2023-01-15T12:14:41.204Z,6.69
2023-01-15T12:17:12.537Z,6.79
2023-01-15T12:20:12.755Z,7.28
2023-01-15T12:23:03.367Z,7.43
2023-01-15T12:26:04.079Z,7.03
2023-01-15T12:28:38.019Z,6.77
2023-01-15T12:31:16.388Z,6.58
2023-01-15T12:34:00.745Z,6.54
2023-01-15T12:36:52.901Z,6.75
2023-01-15T12:39:21.082Z,6.77
2023-01-15T12:42:19.043Z,6.82
2023-01-15T12:45:09.135Z,6.55
2023-01-15T12:47:44.780Z,6.37
2023-01-15T12:50:36.626Z,6.29
2023-01-15T12:53:17.802Z,6.15
2023-01-15T12:56:09.871Z,6.20
2023-01-15T12:58:54.265Z,6.27
2023-01-15T13:01:40.927Z,6.48
2023-01-15T13:04:17.575Z,6.77
2023-01-15T13:06:50.876Z,6.83
2023-01-15T13:09:41.438Z,6.91
2023-01-15T13:12:14.984Z,7.01
2023-01-15T13:14:46.671Z,7.11
2023-01-15T13:17:31.167Z,6.72
2023-01-15T13:20:05.784Z,6.51
2023-01-15T13:22:46.035Z,6.41
2023-01-15T13:25:29.847Z,6.32
2023-01-15T13:28:18.403Z,5.89
2023-01-15T13:30:58.774Z,5.53
2023-01-15T13:33:32.910Z,5.33
2023-01-15T13:36:12.848Z,5.21
2023-01-15T13:38:45.967Z,5.12
2023-01-15T13:41:41.038Z,5.04
2023-01-15T13:44:21.922Z,4.98
2023-01-15T13:47:06.048Z,4.89
2023-01-15T13:49:38.734Z,4.79
2023-01-15T13:52:20.540Z,4.69
2023-01-15T13:54:49.446Z,4.65
2023-01-15T13:57:45.351Z,4.70
2023-01-15T14:00:32.506Z,4.74
2023-01-15T14:03:03.852Z,4.73
2023-01-15T14:05:34.939Z,4.73
2023-01-15T14:08:16.026Z,4.69
2023-01-15T14:10:44.940Z,4.67
2023-01-15T14:13:37.163Z,4.68
2023-01-15T14:16:14.461Z,4.70
2023-01-15T14:19:30.832Z,4.63
2023-01-15T14:22:31.699Z,4.59
2023-01-15T14:25:24.636Z,4.57
2023-01-15T14:28:27.418Z,4.50
2023-01-15T14:31:12.586Z,4.42
2023-01-15T14:34:25.135Z,4.34
2023-01-15T14:36:59.621Z,4.22
2023-01-15T14:39:41.676Z,4.16
2023-01-15T14:42:41.249Z,4.12
2023-01-15T14:45:38.987Z,4.11
2023-01-15T14:48:20.037Z,4.05
2023-01-15T14:50:50.143Z,3.95
2023-01-15T14:53:28.623Z,3.85
2023-01-15T14:55:59.537Z,3.77
2023-01-15T14:58:35.168Z,3.69
2023-01-15T15:01:14.872Z,3.59
2023-01-15T15:04:01.880Z,3.48
2023-01-15T15:06:30.964Z,3.42
2023-01-15T15:09:05.594Z,3.39
2023-01-15T15:12:06.346Z,3.34
2023-01-15T15:14:39.719Z,3.25
2023-01-15T15:17:20.077Z,3.12
2023-01-15T15:19:59.096Z,2.99
2023-01-15T15:22:32.962Z,2.89
2023-01-15T15:25:10.063Z,2.80
2023-01-15T15:27:38.274Z,2.71
2023-01-15T15:30:09.133Z,2.63
2023-01-15T15:32:40.337Z,2.52
2023-01-15T15:35:40.405Z,2.42
2023-01-15T15:38:18.703Z,2.30
2023-01-15T15:40:54.706Z,2.20
2023-01-15T15:43:47.867Z,2.11
2023-01-15T15:46:43.228Z,1.95
2023-01-15T15:49:13.702Z,1.79
2023-01-15T15:51:49.248Z,1.67
2023-01-15T15:54:27.833Z,1.58
2023-01-15T15:56:56.142Z,1.50
2023-01-15T15:59:30.768Z,1.44
2023-01-15T16:02:08.229Z,1.39
2023-01-15T16:04:36.842Z,1.33
2023-01-15T16:07:21.611Z,1.27
2023-01-15T16:09:53.257Z,1.19
2023-01-15T16:12:22.386Z,1.10
2023-01-15T16:14:51.754Z,0.96
2023-01-15T16:17:20.330Z,0.88
2023-01-15T16:19:49.068Z,0.86
2023-01-15T16:22:18.229Z,0.83
2023-01-15T16:24:57.623Z,0.83
2023-01-15T16:27:33.737Z,0.87
2023-01-15T16:30:02.449Z,0.88
2023-01-15T16:32:35.747Z,0.89
2023-01-15T16:35:16.452Z,0.94
2023-01-15T16:37:50.304Z,1.02
2023-01-15T16:40:29.803Z,1.08
2023-01-15T16:43:15.698Z,1.06
2023-01-15T16:46:18.153Z,1.06
2023-01-15T16:48:47.026Z,1.04
2023-01-15T16:51:27.922Z,1.05
2023-01-15T16:53:56.767Z,1.06
2023-01-15T16:56:24.742Z,1.05
2023-01-15T16:58:53.488Z,1.01
2023-01-15T17:01:43.794Z,0.95
2023-01-15T17:04:34.669Z,0.87
2023-01-15T17:07:29.520Z,0.81
2023-01-15T17:10:01.540Z,0.80
2023-01-15T17:12:39.466Z,0.80
2023-01-15T17:15:16.632Z,0.78
2023-01-15T17:17:55.848Z,0.76
2023-01-15T17:20:27.977Z,0.76
2023-01-15T17:22:56.920Z,0.79
2023-01-15T17:25:33.494Z,0.80
2023-01-15T17:28:03.702Z,0.82
2023-01-15T17:30:33.411Z,0.81
2023-01-15T17:33:04.615Z,0.78
2023-01-15T17:35:36.516Z,0.77
2023-01-15T17:38:06.904Z,0.73
2023-01-15T17:40:35.199Z,0.69
2023-01-15T17:43:05.023Z,0.66
2023-01-15T17:45:33.972Z,0.66
2023-01-15T17:48:05.057Z,0.66
2023-01-15T17:50:33.226Z,0.67
2023-01-15T17:53:02.218Z,0.72
2023-01-15T17:55:49.130Z,0.73
2023-01-15T17:58:36.557Z,0.76
2023-01-15T18:01:32.971Z,0.77
2023-01-15T18:04:21.755Z,0.77
2023-01-15T18:06:53.890Z,0.68
2023-01-15T18:09:23.083Z,0.60
2023-01-15T18:11:51.248Z,0.56
2023-01-15T18:14:21.056Z,0.52
2023-01-15T18:16:50.468Z,0.47
2023-01-15T18:19:20.207Z,0.40
2023-01-15T18:21:50.215Z,0.31
2023-01-15T18:24:22.154Z,0.22
2023-01-15T18:26:55.681Z,0.11
2023-01-15T18:29:24.159Z,-0.02
2023-01-15T18:31:52.436Z,-0.10
2023-01-15T18:34:20.606Z,-0.15
2023-01-15T18:36:48.761Z,-0.22
2023-01-15T18:39:17.159Z,-0.29
2023-01-15T18:41:45.337Z,-0.36
2023-01-15T18:44:35.012Z,-0.39
2023-01-15T18:47:12.586Z,-0.41
2023-01-15T18:49:42.896Z,-0.43
2023-01-15T18:52:32.901Z,-0.46
2023-01-15T18:55:01.413Z,-0.47
2023-01-15T18:57:33.257Z,-0.49
2023-01-15T19:00:01.552Z,-0.51
2023-01-15T19:02:30.663Z,-0.53
2023-01-15T19:05:00.963Z,-0.51
2023-01-15T19:07:30.961Z,-0.51
2023-01-15T19:09:59.333Z,-0.50
2023-01-15T19:12:27.880Z,-0.49
2023-01-15T19:15:14.735Z,-0.48
2023-01-15T19:18:05.625Z,-0.46
2023-01-15T19:20:35.252Z,-0.41
2023-01-15T19:23:06.989Z,-0.41
2023-01-15T19:25:41.829Z,-0.43
2023-01-15T19:28:15.427Z,-0.47
2023-01-15T19:31:05.237Z,-0.55
2023-01-15T19:33:34.213Z,-0.59
2023-01-15T19:36:02.776Z,-0.62
2023-01-15T19:38:31.076Z,-0.63
2023-01-15T19:41:19.612Z,-0.63
2023-01-15T19:44:06.594Z,-0.68
2023-01-15T19:46:53.939Z,-0.80
2023-01-15T19:49:41.933Z,-0.83
2023-01-15T19:52:28.660Z,-0.83
2023-01-15T19:54:56.965Z,-0.83
2023-01-15T19:57:25.759Z,-0.81
2023-01-15T19:59:54.139Z,-0.79
2023-01-15T20:02:22.969Z,-0.79
2023-01-15T20:04:52.325Z,-0.85
2023-01-15T20:07:20.493Z,-0.86
2023-01-15T20:09:48.767Z,-0.89
2023-01-15T20:12:35.992Z,-0.89
2023-01-15T20:15:05.101Z,-0.85
2023-01-15T20:17:33.566Z,-0.87
2023-01-15T20:20:02.480Z,-0.87
2023-01-15T20:22:32.268Z,-0.87
2023-01-15T20:25:00.309Z,-0.92
2023-01-15T20:27:32.465Z,-0.95
2023-01-15T20:30:10.106Z,-0.91
2023-01-15T20:32:42.171Z,-0.93
2023-01-15T20:35:12.857Z,-0.93
2023-01-15T20:37:44.246Z,-1.02
2023-01-15T20:40:13.340Z,-1.06
2023-01-15T20:43:00.341Z,-1.08
2023-01-15T20:45:29.053Z,-1.09
2023-01-15T20:48:12.387Z,-1.03
2023-01-15T20:51:00.775Z,-0.97
2023-01-15T20:53:34.778Z,-0.97
2023-01-15T20:56:10.886Z,-0.92
2023-01-15T20:58:39.286Z,-0.83
2023-01-15T21:01:11.048Z,-0.75
2023-01-15T21:03:39.720Z,-0.68
2023-01-15T21:06:08.703Z,-0.62
2023-01-15T21:08:36.971Z,-0.57
2023-01-15T21:11:05.764Z,-0.54
2023-01-15T21:13:33.891Z,-0.50
2023-01-15T21:16:06.411Z,-0.49
2023-01-15T21:18:39.198Z,-0.57
2023-01-15T21:21:16.170Z,-0.78
2023-01-15T21:23:45.911Z,-0.88
2023-01-15T21:26:16.096Z,-0.89
2023-01-15T21:28:44.916Z,-0.90
2023-01-15T21:31:14.720Z,-0.98
2023-01-15T21:33:42.968Z,-1.02
2023-01-15T21:36:13.649Z,-1.09
2023-01-15T21:38:41.939Z,-1.17
2023-01-15T21:41:13.092Z,-1.24
2023-01-15T21:44:01.102Z,-1.34
2023-01-15T21:46:30.060Z,-1.43
2023-01-15T21:48:59.541Z,-1.51
2023-01-15T21:51:27.963Z,-1.61
2023-01-15T21:54:00.123Z,-1.66
2023-01-15T21:56:28.885Z,-1.72
2023-01-15T21:58:57.451Z,-1.75
2023-01-15T22:01:26.301Z,-1.77
2023-01-15T22:03:54.623Z,-1.80
2023-01-15T22:06:23.208Z,-1.82
2023-01-15T22:08:54.581Z,-1.83
2023-01-15T22:11:23.879Z,-1.82
2023-01-15T22:13:53.175Z,-1.75
2023-01-15T22:16:21.385Z,-1.70
2023-01-15T22:18:49.618Z,-1.66
2023-01-15T22:21:18.118Z,-1.63
2023-01-15T22:23:49.081Z,-1.59
2023-01-15T22:26:22.179Z,-1.55
2023-01-15T22:28:51.724Z,-1.55
2023-01-15T22:31:19.986Z,-1.50
2023-01-15T22:33:48.675Z,-1.43
2023-01-15T22:36:17.286Z,-1.41
2023-01-15T22:38:47.274Z,-1.51
2023-01-15T22:41:15.456Z,-1.54
2023-01-15T22:43:43.677Z,-1.45
2023-01-15T22:46:14.397Z,-1.42
2023-01-15T22:48:42.632Z,-1.47
2023-01-15T22:51:10.692Z,-1.42
2023-01-15T22:53:38.867Z,-1.41
2023-01-15T22:56:07.555Z,-1.50
2023-01-15T22:58:36.445Z,-1.61
2023-01-15T23:01:05.681Z,-1.71
2023-01-15T23:03:35.168Z,-1.80
2023-01-15T23:06:10.303Z,-1.84
2023-01-15T23:08:38.803Z,-1.87
2023-01-15T23:11:15.503Z,-1.94
2023-01-15T23:13:43.831Z,-2.03
2023-01-15T23:16:12.070Z,-2.11
2023-01-15T23:18:40.300Z,-2.16
2023-01-15T23:21:11.950Z,-2.20
2023-01-15T23:23:40.628Z,-2.24
2023-01-15T23:26:15.016Z,-2.28
2023-01-15T23:28:43.453Z,-2.31
2023-01-15T23:31:12.261Z,-2.36
2023-01-15T23:33:40.665Z,-2.43
2023-01-15T23:36:10.121Z,-2.49
2023-01-15T23:38:40.387Z,-2.52
2023-01-15T23:41:15.047Z,-2.53
2023-01-15T23:44:02.914Z,-2.52
2023-01-15T23:46:35.547Z,-2.50
2023-01-15T23:49:10.110Z,-2.46
2023-01-15T23:51:38.368Z,-2.41
2023-01-15T23:54:06.612Z,-2.37
2023-01-15T23:56:34.872Z,-2.38
2023-01-15T23:59:03.047Z,-2.44
